Aérodrome :
LOGIN :

S'inscrire | Disclaimer

   EN    FR    IT 

 










Légende :    VFR   VFR Marginal   IFR   IFR Intensif   IFR Très Intensif
Visi : 
Plafond : 
>= 8 km
>= 3000ft
5 à 8 km
1000 à 3000 ft
1500m à 5 km
500 à 1000 ft
800 à 1500m
200 à 500 ft
< 800m
< 200 ft
Symboles :   Orages  Brouillard  Fortes neiges  Fortes précipitations  Vent > 20 kt
SIGMETs :   Divers  Orages  Givrage  Turbulence  Onde Orograph.  Cendres Volcan.






- Altitude de l'aérodrome : 313 ft


LFQA - Reims-Prunay

DERNIER METAR :
  • 110400Z AUTO 33010KT 3000 RA BR BKN005/// BKN011/// OVC019/// ///TCU 07/07 Q1008

METARs EXPIRÉS :
  • 110330Z AUTO 34008KT 320V070 3800 BR BKN005 BKN010 OVC016 07/07 Q1007
  • 110300Z AUTO 33006KT 4100 BR OVC004 08/07 Q1007
  • 110230Z AUTO 34008KT 5000 BR OVC005 08/07 Q1007
  • 110200Z AUTO VRB10KT 6000 BKN005 OVC009 08/07 Q1007
  • 110130Z AUTO 32005KT 9999 OVC008 09/09 Q1007

TAF N/A



MET'MAP, la Météo Aéronautique d'un coup d'oeil ! - Copyright ORBIFLY Décembre 2007 - Disclaimer

ORBIFLY MET'MAP TEAM :

Programmation & Développement : Alexandra Zaïnal
Sur une idée originale de : Baudouin d'Aumeries
Assistance à la programmation : Marc-Olivier Méhu
Soutien technique & logistique : Manuel Goepfert

Contact : metmap@orbifly.com




SOURCES & CREDITS :

   NOAA